Bridgeport, CT (06699)

4:20 AM EDT on March 27, 2015 (GMT -0400)
Brewer Stratford Marina | | Change Station
CLOSE
Current Station
Personal Weather Station
Location: Stratford, CT
Elevation: 20 ft
Nearby Weather Stations

Elev 20 ft 41.18 °N, 73.13 °W | Updated 3 seconds ago

Light Rain
Light Rain
40.2 °F
Feels Like 40 °F
N
0.0
Wind Variable Wind from North
Gusts 0.0 mph

Today
High -- | Low -- °F
--% Chance of Precip.
Yesterday
High -- | Low -- °F
Precip. -- in
6:44 AM 7:11 PM
Waxing Crescent, 50% visible
Pressure 29.71 in
Visibility 10.0 miles
Clouds Scattered Clouds 2600 ft
Overcast 8000 ft
Windchill 40 °F
Dew Point 38 °F
Humidity 91%
Rainfall 0.15 in
Snow Depth Not available.
UV 0 out of 12
Pollen 3.40 out of 12
Air Quality Not available.
Flu Activity Not available.
SPECI KBDR 270812Z AUTO 33004KT 10SM -RA SCT026 OVC080 06/04 A2971 RMK AO2 P0000 T00560039

More Conditions Fewer Conditions

Pressure 29.71 in
Visibility 10.0 miles
Clouds Scattered Clouds 2600 ft
Overcast 8000 ft
Windchill 40 °F
Dew Point 38 °F
Humidity 91%
Rainfall 0.15 in
Snow Depth Not available.
UV 0 out of 12
Pollen 3.40 out of 12
Air Quality Not available.
Flu Activity Not available.
SPECI KBDR 270812Z AUTO 33004KT 10SM -RA SCT026 OVC080 06/04 A2971 RMK AO2 P0000 T00560039

More Conditions Fewer Conditions

10-Day Weather Forecast

Almanac

Astronomy

Mar. 27, 2015 Rise Set
Actual Time
Civil Twilight
Nautical Twilight
Astronomical Twilight
Moon
Length of Visible Light
Length of Day
Tomorrow will be .
, % of the Moon is Illuminated

Today's Extremes

State Highs State Lows

Community

WunderPhotos

Upload Photos

1,808,705 photos uploaded!

WunderBlogs® & News

Nearby

Air Quality

  Air Quality AQ Index Pollutant
Not available.

Snow Depth

Station Depth Elevation

Earthquake Activity

City Distance Mag. Time & Date
Minimum magnitude displayed is 2.5.

Coastal Water Temperatures

Place Temperature

Stations

Nearby Weather Stations

Station Location Temp. Windchill Dew Point Humidity Wind Precip. Elev Updated Type